DLH591 HKJK-EDDF
Flight info
| Callsign | DLH591 |
|---|---|
| Flight time | N/A |
| Altitude | 36000 |
| Route | ETORU1A LOTAS UM308 RUDOL/N0496F370 UM308 GETOL M308 RANSO/N0489F390 M308 KONET UG650 RASKA/N0490F380 T513 EGMEG/N0487F390 G660 JDW/N0492F380 L677 RIDEP/N0487F400 L677 CVO L617 MENKU Y661 ANTAR DCT AKINA DCT RIGRO DCT FSK UL608 DISOR DCT LONTA UL608 DOLEV DCT BEDOX DCT SIMBA DCT AKINI T161 DEBHI SPESA5B |
| Aircraft | A359/H-SDE2E3GHIJ3J4J5LM1ORWXY/LB1D1 |
Departure
| Time | 2026-05-07 15:23 |
|---|---|
| Airport | Jomo Kenyatta International Airport (HKJK) |
Arrival
| Time | N/A |
|---|---|
| Airport | Frankfurt Main Airport (EDDF) |
| Time | Latitude | Longitude | Altitude | Speed | Heading |
|---|---|---|---|---|---|
| 2026-05-07 15:16 | -1.32963 | 36.92230 | 5335 ft | 0 kts | 20° |
| 2026-05-07 15:17 | -1.32962 | 36.92231 | 5335 ft | 1 kts | 20° |
| 2026-05-07 15:17 | -1.32937 | 36.92241 | 5335 ft | 6 kts | 23° |
| 2026-05-07 15:17 | -1.32901 | 36.92257 | 5336 ft | 5 kts | 15° |
| 2026-05-07 15:17 | -1.32865 | 36.92253 | 5334 ft | 5 kts | 342° |
| 2026-05-07 15:18 | -1.32835 | 36.92234 | 5336 ft | 5 kts | 322° |
| 2026-05-07 15:18 | -1.32806 | 36.92211 | 5334 ft | 5 kts | 322° |
| 2026-05-07 15:18 | -1.32788 | 36.92186 | 5336 ft | 3 kts | 290° |
| 2026-05-07 15:18 | -1.32787 | 36.92181 | 5337 ft | 1 kts | 280° |
| 2026-05-07 15:19 | -1.32791 | 36.92162 | 5337 ft | 6 kts | 251° |
| 2026-05-07 15:19 | -1.32814 | 36.92120 | 5337 ft | 6 kts | 238° |
| 2026-05-07 15:19 | -1.32837 | 36.92086 | 5340 ft | 6 kts | 233° |
| 2026-05-07 15:19 | -1.32870 | 36.92043 | 5340 ft | 9 kts | 233° |
| 2026-05-07 15:20 | -1.32914 | 36.91984 | 5340 ft | 11 kts | 234° |
| 2026-05-07 15:20 | -1.32955 | 36.91927 | 5340 ft | 10 kts | 234° |
| 2026-05-07 15:20 | -1.32993 | 36.91874 | 5341 ft | 9 kts | 237° |
| 2026-05-07 15:20 | -1.33000 | 36.91833 | 5343 ft | 3 kts | 282° |
| 2026-05-07 15:21 | -1.32982 | 36.91810 | 5344 ft | 7 kts | 319° |
| 2026-05-07 15:21 | -1.32936 | 36.91776 | 5347 ft | 8 kts | 324° |
| 2026-05-07 15:21 | -1.32885 | 36.91740 | 5347 ft | 10 kts | 324° |
| 2026-05-07 15:21 | -1.32827 | 36.91699 | 5345 ft | 11 kts | 324° |
| 2026-05-07 15:22 | -1.32768 | 36.91661 | 5348 ft | 8 kts | 337° |
| 2026-05-07 15:22 | -1.32726 | 36.91685 | 5344 ft | 8 kts | 50° |
| 2026-05-07 15:22 | -1.32677 | 36.91749 | 5342 ft | 22 kts | 53° |
| 2026-05-07 15:22 | -1.32452 | 36.92057 | 5334 ft | 88 kts | 54° |
| 2026-05-07 15:23 | -1.31969 | 36.92717 | 5315 ft | 146 kts | 54° |
| 2026-05-07 15:23 | -1.31263 | 36.93671 | 5407 ft | 186 kts | 54° |
| 2026-05-07 15:23 | -1.30510 | 36.94677 | 6285 ft | 176 kts | 55° |
| 2026-05-07 15:23 | -1.29770 | 36.95679 | 6821 ft | 181 kts | 57° |
| 2026-05-07 15:24 | -1.28991 | 36.96680 | 7078 ft | 186 kts | 53° |
| 2026-05-07 15:24 | -1.28141 | 36.97692 | 7323 ft | 193 kts | 52° |
| 2026-05-07 15:24 | -1.27253 | 36.98732 | 7575 ft | 201 kts | 51° |
| 2026-05-07 15:24 | -1.26356 | 36.99837 | 7833 ft | 208 kts | 55° |
| 2026-05-07 15:25 | -1.25519 | 37.01060 | 8053 ft | 218 kts | 61° |
| 2026-05-07 15:25 | -1.24700 | 37.02391 | 8225 ft | 232 kts | 60° |
| 2026-05-07 15:25 | -1.23843 | 37.03800 | 8430 ft | 243 kts | 59° |
| 2026-05-07 15:25 | -1.22886 | 37.05238 | 8681 ft | 253 kts | 57° |
| 2026-05-07 15:26 | -1.21838 | 37.06694 | 8962 ft | 263 kts | 55° |
| 2026-05-07 15:26 | -1.20701 | 37.08172 | 9281 ft | 273 kts | 52° |
| 2026-05-07 15:26 | -1.19511 | 37.09653 | 9607 ft | 280 kts | 52° |
| 2026-05-07 15:26 | -1.18237 | 37.11185 | 9851 ft | 292 kts | 51° |
| 2026-05-07 15:27 | -1.16873 | 37.12754 | 10257 ft | 297 kts | 46° |
| 2026-05-07 15:27 | -1.15189 | 37.13940 | 10514 ft | 307 kts | 25° |
| 2026-05-07 15:27 | -1.13089 | 37.14442 | 10759 ft | 317 kts | 2° |
| 2026-05-07 15:27 | -1.10874 | 37.14158 | 10989 ft | 328 kts | 343° |
| 2026-05-07 15:28 | -1.08701 | 37.13358 | 11205 ft | 339 kts | 339° |
| 2026-05-07 15:28 | -1.06472 | 37.12479 | 11399 ft | 349 kts | 339° |
| 2026-05-07 15:28 | -1.04199 | 37.11518 | 11583 ft | 360 kts | 336° |
| 2026-05-07 15:28 | -1.01893 | 37.10475 | 11766 ft | 369 kts | 336° |
| 2026-05-07 15:29 | -0.99527 | 37.09406 | 11956 ft | 377 kts | 336° |
| 2026-05-07 15:29 | -0.97104 | 37.08322 | 12110 ft | 385 kts | 336° |
| 2026-05-07 15:29 | -0.94636 | 37.07224 | 12342 ft | 391 kts | 337° |
| 2026-05-07 15:29 | -0.92137 | 37.06118 | 12680 ft | 393 kts | 337° |
| 2026-05-07 15:30 | -0.89623 | 37.05006 | 13025 ft | 395 kts | 336° |
| 2026-05-07 15:30 | -0.87108 | 37.03895 | 13369 ft | 397 kts | 337° |
| 2026-05-07 15:30 | -0.84570 | 37.02775 | 13691 ft | 399 kts | 337° |
| 2026-05-07 15:30 | -0.82020 | 37.01649 | 14014 ft | 401 kts | 337° |
| 2026-05-07 15:31 | -0.79458 | 37.00519 | 14324 ft | 403 kts | 337° |
| 2026-05-07 15:31 | -0.76888 | 36.99385 | 14634 ft | 404 kts | 337° |
| 2026-05-07 15:31 | -0.74342 | 36.98262 | 14912 ft | 406 kts | 337° |
| 2026-05-07 15:31 | -0.71755 | 36.97120 | 15199 ft | 408 kts | 337° |
| 2026-05-07 15:32 | -0.69152 | 36.95973 | 15493 ft | 409 kts | 337° |
| 2026-05-07 15:32 | -0.66542 | 36.94822 | 15806 ft | 411 kts | 337° |
| 2026-05-07 15:32 | -0.63917 | 36.93664 | 16117 ft | 413 kts | 336° |
| 2026-05-07 15:32 | -0.61276 | 36.92498 | 16391 ft | 416 kts | 337° |
| 2026-05-07 15:33 | -0.58622 | 36.91329 | 16704 ft | 417 kts | 336° |
| 2026-05-07 15:33 | -0.55960 | 36.90154 | 17005 ft | 418 kts | 336° |
| 2026-05-07 15:33 | -0.53288 | 36.88976 | 17285 ft | 420 kts | 336° |
| 2026-05-07 15:33 | -0.50605 | 36.87792 | 17543 ft | 423 kts | 336° |
| 2026-05-07 15:34 | -0.47911 | 36.86603 | 17838 ft | 424 kts | 336° |
| 2026-05-07 15:34 | -0.45205 | 36.85410 | 18129 ft | 426 kts | 336° |
| 2026-05-07 15:34 | -0.42485 | 36.84210 | 18428 ft | 427 kts | 336° |
| 2026-05-07 15:34 | -0.39793 | 36.83023 | 18656 ft | 429 kts | 336° |
| 2026-05-07 15:35 | -0.37057 | 36.81816 | 18871 ft | 431 kts | 336° |
| 2026-05-07 15:35 | -0.34311 | 36.80606 | 19111 ft | 432 kts | 336° |
| 2026-05-07 15:35 | -0.31473 | 36.79607 | 19353 ft | 432 kts | 345° |
| 2026-05-07 15:35 | -0.28541 | 36.78903 | 19581 ft | 434 kts | 348° |
| 2026-05-07 15:36 | -0.25587 | 36.78274 | 19809 ft | 435 kts | 348° |
| 2026-05-07 15:36 | -0.22613 | 36.77665 | 20022 ft | 436 kts | 349° |
| 2026-05-07 15:36 | -0.19637 | 36.77064 | 20247 ft | 438 kts | 349° |
| 2026-05-07 15:36 | -0.17612 | 36.76659 | 20398 ft | 438 kts | 349° |
| 2026-05-07 15:37 | -0.14614 | 36.76062 | 20622 ft | 440 kts | 349° |
| 2026-05-07 15:37 | -0.04634 | 36.74083 | 21386 ft | 443 kts | 349° |
| 2026-05-07 15:37 | 0.07630 | 36.71654 | 21996 ft | 452 kts | 349° |
| 2026-05-07 15:37 | 0.20085 | 36.69189 | 22765 ft | 457 kts | 350° |
| 2026-05-07 15:38 | 0.32673 | 36.66697 | 23523 ft | 462 kts | 349° |
| 2026-05-07 15:38 | 0.45310 | 36.64195 | 24119 ft | 466 kts | 349° |
| 2026-05-07 15:38 | 0.58089 | 36.61665 | 24705 ft | 469 kts | 349° |
| 2026-05-07 15:38 | 0.70944 | 36.59120 | 25252 ft | 473 kts | 349° |
| 2026-05-07 15:39 | 0.83718 | 36.56591 | 25808 ft | 476 kts | 349° |
| 2026-05-07 15:39 | 0.96787 | 36.54112 | 26355 ft | 478 kts | 354° |
| 2026-05-07 15:39 | 1.09878 | 36.56161 | 26866 ft | 480 kts | 17° |
| 2026-05-07 15:39 | 1.22727 | 36.60168 | 27346 ft | 484 kts | 17° |
| 2026-05-07 15:40 | 1.35677 | 36.64002 | 27860 ft | 487 kts | 17° |
| 2026-05-07 15:40 | 1.48744 | 36.67841 | 28361 ft | 491 kts | 16° |
| 2026-05-07 15:40 | 1.61883 | 36.71708 | 28844 ft | 493 kts | 17° |
| 2026-05-07 15:40 | 1.75141 | 36.75612 | 29297 ft | 495 kts | 16° |
| 2026-05-07 15:41 | 1.88410 | 36.79518 | 29671 ft | 499 kts | 16° |
| 2026-05-07 15:41 | 2.01607 | 36.83404 | 30002 ft | 502 kts | 16° |
| 2026-05-07 15:41 | 2.15243 | 36.87420 | 30300 ft | 506 kts | 16° |
| 2026-05-07 15:41 | 2.28808 | 36.91416 | 30584 ft | 509 kts | 16° |
| 2026-05-07 15:42 | 2.42395 | 36.95419 | 31120 ft | 508 kts | 16° |
| 2026-05-07 15:42 | 2.55801 | 36.99370 | 31608 ft | 509 kts | 16° |
| 2026-05-07 15:42 | 2.69354 | 37.03365 | 32128 ft | 508 kts | 16° |
| 2026-05-07 15:42 | 2.82935 | 37.07369 | 32663 ft | 508 kts | 16° |
| 2026-05-07 15:43 | 2.96474 | 37.11361 | 33225 ft | 508 kts | 16° |
| 2026-05-07 15:43 | 3.10086 | 37.15376 | 33687 ft | 511 kts | 16° |
| 2026-05-07 15:43 | 3.23671 | 37.19385 | 34337 ft | 508 kts | 16° |
| 2026-05-07 15:43 | 3.37211 | 37.23381 | 34972 ft | 506 kts | 15° |
| 2026-05-07 15:44 | 3.50664 | 37.27352 | 35700 ft | 503 kts | 15° |
| 2026-05-07 15:44 | 3.64143 | 37.31333 | 35799 ft | 507 kts | 15° |
| 2026-05-07 15:44 | 3.91274 | 37.39349 | 35812 ft | 508 kts | 15° |
| 2026-05-07 15:45 | 4.18453 | 37.46923 | 35839 ft | 508 kts | 14° |
| 2026-05-07 15:45 | 4.45674 | 37.54280 | 35871 ft | 506 kts | 14° |
| 2026-05-07 15:46 | 4.86384 | 37.65311 | 35910 ft | 504 kts | 14° |
| 2026-05-07 15:47 | 5.13377 | 37.72632 | 35918 ft | 505 kts | 15° |
| 2026-05-07 15:47 | 5.40451 | 37.79982 | 35926 ft | 504 kts | 14° |
| 2026-05-07 15:48 | 5.67560 | 37.87348 | 35932 ft | 504 kts | 15° |
| 2026-05-07 15:48 | 5.94603 | 37.94703 | 35945 ft | 504 kts | 15° |
| 2026-05-07 15:49 | 6.21585 | 38.02049 | 35949 ft | 502 kts | 15° |